METAR Data
IDs: Format: Raw Decoded Include TAF

Data at: 0339 UTC 06 Dec 2019

METAR for:WSSL (Singapore/Seletar Ar, --, SR)
Text:WSSL 060300Z 02013KT 9999 SCT018 BKN300 30/23 Q1012
Temperature: 30.0°C ( 86°F)
Dewpoint: 23.0°C ( 73°F) [RH = 66%]
Pressure (altimeter):29.88 inches Hg (1012.0 mb)
Winds:from the NNE (20 degrees) at 15 MPH (13 knots; 6.7 m/s)
Visibility:6 or more sm (10+ km)
Ceiling:30000 feet AGL
Clouds: scattered clouds at 1800 feet AGL, broken clouds at 30000 feet AGL

TAF for:WSSL (Singapore/Seletar Ar, --, SR) issued at 2300 UTC 05 Dec 2019
Text:TAF WSSL 052300Z 0600/0706 03013KT 9999 FEW015 SCT020
Forecast period:0000 UTC 06 December 2019 to 0600 UTC 07 December 2019
Forecast type:FROM: standard forecast or significant change
Winds:from the NNE (30 degrees) at 15 MPH (13 knots; 6.7 m/s)
Visibility:6 or more sm (10+ km)
Ceiling:at least 12,000 feet AGL
Clouds: few clouds at 1500 feet AGL, scattered clouds at 2000 feet AGL
Text:TEMPO 0605/0609 03015G25KT
Forecast period:0500 to 0900 UTC 06 December 2019
Forecast type:TEMPORARY: The following changes expected for less than half the time period
Winds:from the NNE (30 degrees) at 17 MPH (15 knots; 7.7 m/s) gusting to 29 MPH (25 knots; 12.9 m/s)
Clouds:missing